sensor_id;sensor_type;location;lat;lon;timestamp;P1;durP1;ratioP1;P2;durP2;ratioP2
11854;SDS011;5987;53.140;8.904;2023-06-26T00:01:20;9.10;;;6.73;;
11854;SDS011;5987;53.140;8.904;2023-06-26T00:04:24;6.97;;;5.77;;
11854;SDS011;5987;53.140;8.904;2023-06-26T00:07:28;7.70;;;5.97;;
11854;SDS011;5987;53.140;8.904;2023-06-26T00:10:32;8.43;;;5.90;;
11854;SDS011;5987;53.140;8.904;2023-06-26T00:13:38;7.33;;;6.07;;
11854;SDS011;5987;53.140;8.904;2023-06-26T00:16:43;7.93;;;6.00;;
11854;SDS011;5987;53.140;8.904;2023-06-26T00:19:47;7.20;;;6.07;;
11854;SDS011;5987;53.140;8.904;2023-06-26T00:22:50;7.17;;;6.47;;
11854;SDS011;5987;53.140;8.904;2023-06-26T00:25:55;7.23;;;6.23;;
11854;SDS011;5987;53.140;8.904;2023-06-26T00:29:00;7.07;;;6.27;;
11854;SDS011;5987;53.140;8.904;2023-06-26T00:32:04;7.43;;;6.17;;
11854;SDS011;5987;53.140;8.904;2023-06-26T00:35:09;7.67;;;6.53;;
11854;SDS011;5987;53.140;8.904;2023-06-26T00:38:13;10.80;;;6.67;;
11854;SDS011;5987;53.140;8.904;2023-06-26T00:41:17;7.67;;;6.67;;
11854;SDS011;5987;53.140;8.904;2023-06-26T00:44:22;7.47;;;6.37;;
11854;SDS011;5987;53.140;8.904;2023-06-26T00:47:26;8.80;;;7.40;;
11854;SDS011;5987;53.140;8.904;2023-06-26T00:50:30;8.60;;;7.40;;
11854;SDS011;5987;53.140;8.904;2023-06-26T00:53:34;6.40;;;5.80;;
11854;SDS011;5987;53.140;8.904;2023-06-26T00:56:38;8.33;;;6.73;;
11854;SDS011;5987;53.140;8.904;2023-06-26T00:59:45;9.13;;;6.53;;
11854;SDS011;5987;53.140;8.904;2023-06-26T01:02:49;7.67;;;6.90;;
11854;SDS011;5987;53.140;8.904;2023-06-26T01:05:53;6.93;;;6.00;;
11854;SDS011;5987;53.140;8.904;2023-06-26T01:09:00;7.73;;;6.93;;
11854;SDS011;5987;53.140;8.904;2023-06-26T01:12:05;8.30;;;6.60;;
11854;SDS011;5987;53.140;8.904;2023-06-26T01:15:11;14.17;;;7.17;;
11854;SDS011;5987;53.140;8.904;2023-06-26T01:18:15;9.93;;;7.40;;
11854;SDS011;5987;53.140;8.904;2023-06-26T01:21:19;7.50;;;6.73;;
11854;SDS011;5987;53.140;8.904;2023-06-26T01:24:23;10.23;;;7.20;;
11854;SDS011;5987;53.140;8.904;2023-06-26T01:27:39;8.87;;;6.57;;
11854;SDS011;5987;53.140;8.904;2023-06-26T01:30:45;8.73;;;6.83;;
11854;SDS011;5987;53.140;8.904;2023-06-26T01:33:51;6.73;;;5.90;;
11854;SDS011;5987;53.140;8.904;2023-06-26T01:36:55;10.20;;;7.80;;
11854;SDS011;5987;53.140;8.904;2023-06-26T01:39:59;9.17;;;7.73;;
11854;SDS011;5987;53.140;8.904;2023-06-26T01:43:10;8.13;;;7.33;;
11854;SDS011;5987;53.140;8.904;2023-06-26T01:46:22;10.73;;;8.43;;
11854;SDS011;5987;53.140;8.904;2023-06-26T01:49:35;10.53;;;7.73;;
11854;SDS011;5987;53.140;8.904;2023-06-26T01:52:52;8.43;;;7.50;;
11854;SDS011;5987;53.140;8.904;2023-06-26T01:56:08;8.60;;;7.17;;
11854;SDS011;5987;53.140;8.904;2023-06-26T01:59:20;8.57;;;7.67;;
11854;SDS011;5987;53.140;8.904;2023-06-26T02:02:25;8.20;;;7.40;;
11854;SDS011;5987;53.140;8.904;2023-06-26T02:05:31;8.13;;;7.00;;
11854;SDS011;5987;53.140;8.904;2023-06-26T02:08:35;11.17;;;7.50;;
11854;SDS011;5987;53.140;8.904;2023-06-26T02:11:39;9.53;;;7.57;;
11854;SDS011;5987;53.140;8.904;2023-06-26T02:14:44;8.70;;;7.80;;
11854;SDS011;5987;53.140;8.904;2023-06-26T02:17:48;14.37;;;7.43;;
11854;SDS011;5987;53.140;8.904;2023-06-26T02:20:52;8.73;;;6.83;;
11854;SDS011;5987;53.140;8.904;2023-06-26T02:23:55;9.77;;;8.03;;
11854;SDS011;5987;53.140;8.904;2023-06-26T02:26:59;10.47;;;7.77;;
11854;SDS011;5987;53.140;8.904;2023-06-26T02:30:05;9.20;;;8.27;;
11854;SDS011;5987;53.140;8.904;2023-06-26T02:33:11;9.40;;;7.17;;
11854;SDS011;5987;53.140;8.904;2023-06-26T02:36:15;8.47;;;6.70;;
11854;SDS011;5987;53.140;8.904;2023-06-26T02:39:19;9.07;;;8.00;;
11854;SDS011;5987;53.140;8.904;2023-06-26T02:42:23;10.50;;;7.40;;
11854;SDS011;5987;53.140;8.904;2023-06-26T02:45:28;11.00;;;8.57;;
11854;SDS011;5987;53.140;8.904;2023-06-26T02:48:32;10.10;;;8.10;;
11854;SDS011;5987;53.140;8.904;2023-06-26T02:51:36;11.03;;;7.70;;
11854;SDS011;5987;53.140;8.904;2023-06-26T02:54:39;8.87;;;7.97;;
11854;SDS011;5987;53.140;8.904;2023-06-26T02:57:43;7.90;;;7.07;;
11854;SDS011;5987;53.140;8.904;2023-06-26T03:00:48;10.00;;;7.03;;
11854;SDS011;5987;53.140;8.904;2023-06-26T03:03:52;9.63;;;8.17;;
11854;SDS011;5987;53.140;8.904;2023-06-26T03:06:57;8.07;;;7.23;;
11854;SDS011;5987;53.140;8.904;2023-06-26T03:10:01;9.10;;;7.43;;
11854;SDS011;5987;53.140;8.904;2023-06-26T03:13:05;9.83;;;7.47;;
11854;SDS011;5987;53.140;8.904;2023-06-26T03:16:10;9.67;;;7.97;;
11854;SDS011;5987;53.140;8.904;2023-06-26T03:19:14;11.10;;;7.27;;
11854;SDS011;5987;53.140;8.904;2023-06-26T03:22:18;10.87;;;8.53;;
11854;SDS011;5987;53.140;8.904;2023-06-26T03:25:21;9.23;;;7.83;;
11854;SDS011;5987;53.140;8.904;2023-06-26T03:28:26;9.63;;;7.37;;
11854;SDS011;5987;53.140;8.904;2023-06-26T03:31:32;8.43;;;7.53;;
11854;SDS011;5987;53.140;8.904;2023-06-26T03:34:37;9.33;;;7.17;;
11854;SDS011;5987;53.140;8.904;2023-06-26T03:37:41;10.17;;;7.87;;
11854;SDS011;5987;53.140;8.904;2023-06-26T03:40:45;8.77;;;6.97;;
11854;SDS011;5987;53.140;8.904;2023-06-26T03:43:48;8.20;;;7.03;;
11854;SDS011;5987;53.140;8.904;2023-06-26T03:46:53;10.30;;;7.43;;
11854;SDS011;5987;53.140;8.904;2023-06-26T03:49:57;10.00;;;7.13;;
11854;SDS011;5987;53.140;8.904;2023-06-26T03:53:01;12.60;;;7.07;;
11854;SDS011;5987;53.140;8.904;2023-06-26T03:56:05;7.93;;;7.03;;
11854;SDS011;5987;53.140;8.904;2023-06-26T03:59:09;11.07;;;8.07;;
11854;SDS011;5987;53.140;8.904;2023-06-26T04:02:14;10.90;;;7.63;;
11854;SDS011;5987;53.140;8.904;2023-06-26T04:05:18;8.73;;;7.23;;
11854;SDS011;5987;53.140;8.904;2023-06-26T04:08:23;9.47;;;6.60;;
11854;SDS011;5987;53.140;8.904;2023-06-26T04:11:28;10.00;;;6.90;;
11854;SDS011;5987;53.140;8.904;2023-06-26T04:14:32;8.30;;;6.63;;
11854;SDS011;5987;53.140;8.904;2023-06-26T04:17:37;9.73;;;7.47;;
11854;SDS011;5987;53.140;8.904;2023-06-26T04:20:42;7.23;;;6.53;;
11854;SDS011;5987;53.140;8.904;2023-06-26T04:24:10;7.17;;;6.43;;
11854;SDS011;5987;53.140;8.904;2023-06-26T04:27:16;8.40;;;7.07;;
11854;SDS011;5987;53.140;8.904;2023-06-26T04:30:20;7.40;;;6.07;;
11854;SDS011;5987;53.140;8.904;2023-06-26T04:33:25;7.07;;;5.63;;
11854;SDS011;5987;53.140;8.904;2023-06-26T04:36:30;7.90;;;6.90;;
11854;SDS011;5987;53.140;8.904;2023-06-26T04:39:35;9.37;;;6.47;;
11854;SDS011;5987;53.140;8.904;2023-06-26T04:42:39;6.63;;;6.00;;
11854;SDS011;5987;53.140;8.904;2023-06-26T04:45:43;6.43;;;5.60;;
11854;SDS011;5987;53.140;8.904;2023-06-26T04:48:49;7.77;;;5.93;;
11854;SDS011;5987;53.140;8.904;2023-06-26T04:51:52;6.73;;;6.03;;
11854;SDS011;5987;53.140;8.904;2023-06-26T04:54:57;6.57;;;5.73;;
11854;SDS011;5987;53.140;8.904;2023-06-26T04:58:01;7.47;;;5.57;;
11854;SDS011;5987;53.140;8.904;2023-06-26T05:01:05;7.23;;;5.50;;
11854;SDS011;5987;53.140;8.904;2023-06-26T05:04:11;6.77;;;5.60;;
11854;SDS011;5987;53.140;8.904;2023-06-26T05:07:14;7.10;;;5.60;;
11854;SDS011;5987;53.140;8.904;2023-06-26T05:10:19;6.50;;;5.77;;
11854;SDS011;5987;53.140;8.904;2023-06-26T05:13:23;7.17;;;5.50;;
11854;SDS011;5987;53.140;8.904;2023-06-26T05:16:27;6.30;;;5.50;;
11854;SDS011;5987;53.140;8.904;2023-06-26T05:19:32;7.77;;;5.53;;
11854;SDS011;5987;53.140;8.904;2023-06-26T05:22:37;5.03;;;4.53;;
11854;SDS011;5987;53.140;8.904;2023-06-26T05:25:42;5.37;;;4.80;;
11854;SDS011;5987;53.140;8.904;2023-06-26T05:28:46;5.40;;;4.83;;
11854;SDS011;5987;53.140;8.904;2023-06-26T05:31:52;6.10;;;5.50;;
11854;SDS011;5987;53.140;8.904;2023-06-26T05:35:00;9.33;;;5.30;;
11854;SDS011;5987;53.140;8.904;2023-06-26T05:38:06;6.83;;;5.17;;
11854;SDS011;5987;53.140;8.904;2023-06-26T05:41:11;8.03;;;5.27;;
11854;SDS011;5987;53.140;8.904;2023-06-26T05:44:15;5.83;;;4.57;;
11854;SDS011;5987;53.140;8.904;2023-06-26T05:47:19;5.20;;;4.70;;
11854;SDS011;5987;53.140;8.904;2023-06-26T05:50:25;7.23;;;5.20;;
11854;SDS011;5987;53.140;8.904;2023-06-26T05:53:30;5.50;;;4.67;;
11854;SDS011;5987;53.140;8.904;2023-06-26T05:56:35;6.10;;;4.50;;
11854;SDS011;5987;53.140;8.904;2023-06-26T05:59:42;5.60;;;4.97;;
11854;SDS011;5987;53.140;8.904;2023-06-26T06:02:47;5.33;;;4.37;;
11854;SDS011;5987;53.140;8.904;2023-06-26T06:05:57;5.93;;;4.40;;
11854;SDS011;5987;53.140;8.904;2023-06-26T06:09:01;5.17;;;4.57;;
11854;SDS011;5987;53.140;8.904;2023-06-26T06:12:05;4.73;;;4.27;;
11854;SDS011;5987;53.140;8.904;2023-06-26T06:15:10;5.10;;;4.60;;
11854;SDS011;5987;53.140;8.904;2023-06-26T06:18:14;5.77;;;4.63;;
11854;SDS011;5987;53.140;8.904;2023-06-26T06:21:19;7.13;;;4.57;;
11854;SDS011;5987;53.140;8.904;2023-06-26T06:24:23;5.83;;;4.83;;
11854;SDS011;5987;53.140;8.904;2023-06-26T06:27:27;5.67;;;4.70;;
11854;SDS011;5987;53.140;8.904;2023-06-26T06:30:32;7.27;;;4.63;;
11854;SDS011;5987;53.140;8.904;2023-06-26T06:33:41;5.90;;;5.03;;
11854;SDS011;5987;53.140;8.904;2023-06-26T06:36:46;6.30;;;4.90;;
11854;SDS011;5987;53.140;8.904;2023-06-26T06:39:51;5.77;;;4.77;;
11854;SDS011;5987;53.140;8.904;2023-06-26T06:42:55;5.47;;;4.50;;
11854;SDS011;5987;53.140;8.904;2023-06-26T06:45:59;6.27;;;4.93;;
11854;SDS011;5987;53.140;8.904;2023-06-26T06:49:03;5.17;;;4.63;;
11854;SDS011;5987;53.140;8.904;2023-06-26T06:52:08;9.50;;;4.90;;
11854;SDS011;5987;53.140;8.904;2023-06-26T06:55:12;5.50;;;4.47;;
11854;SDS011;5987;53.140;8.904;2023-06-26T06:58:17;6.20;;;5.13;;
11854;SDS011;5987;53.140;8.904;2023-06-26T07:01:21;6.27;;;5.10;;
11854;SDS011;5987;53.140;8.904;2023-06-26T07:04:25;5.40;;;4.90;;
11854;SDS011;5987;53.140;8.904;2023-06-26T07:07:31;7.47;;;5.40;;
11854;SDS011;5987;53.140;8.904;2023-06-26T07:10:36;6.53;;;5.07;;
11854;SDS011;5987;53.140;8.904;2023-06-26T07:13:41;6.40;;;5.30;;
11854;SDS011;5987;53.140;8.904;2023-06-26T07:16:46;7.77;;;4.73;;
11854;SDS011;5987;53.140;8.904;2023-06-26T07:19:50;11.67;;;6.17;;
11854;SDS011;5987;53.140;8.904;2023-06-26T07:22:55;7.77;;;6.17;;
11854;SDS011;5987;53.140;8.904;2023-06-26T07:25:59;6.80;;;5.53;;
11854;SDS011;5987;53.140;8.904;2023-06-26T07:29:03;8.20;;;6.10;;
11854;SDS011;5987;53.140;8.904;2023-06-26T07:32:07;8.63;;;6.60;;
11854;SDS011;5987;53.140;8.904;2023-06-26T07:35:16;9.53;;;7.00;;
11854;SDS011;5987;53.140;8.904;2023-06-26T07:38:23;9.60;;;6.57;;
11854;SDS011;5987;53.140;8.904;2023-06-26T07:41:27;9.20;;;5.90;;
11854;SDS011;5987;53.140;8.904;2023-06-26T07:44:32;8.10;;;5.83;;
11854;SDS011;5987;53.140;8.904;2023-06-26T07:47:36;8.57;;;6.60;;
11854;SDS011;5987;53.140;8.904;2023-06-26T07:50:41;7.03;;;5.93;;
11854;SDS011;5987;53.140;8.904;2023-06-26T07:53:46;7.97;;;6.07;;
11854;SDS011;5987;53.140;8.904;2023-06-26T07:56:53;7.27;;;6.20;;
11854;SDS011;5987;53.140;8.904;2023-06-26T07:59:59;7.57;;;5.83;;
11854;SDS011;5987;53.140;8.904;2023-06-26T08:03:03;8.53;;;5.83;;
11854;SDS011;5987;53.140;8.904;2023-06-26T08:06:13;8.67;;;5.40;;
11854;SDS011;5987;53.140;8.904;2023-06-26T08:09:18;11.57;;;6.30;;
11854;SDS011;5987;53.140;8.904;2023-06-26T08:12:25;10.57;;;6.87;;
11854;SDS011;5987;53.140;8.904;2023-06-26T08:15:33;9.90;;;7.37;;
11854;SDS011;5987;53.140;8.904;2023-06-26T08:18:37;10.20;;;7.33;;
11854;SDS011;5987;53.140;8.904;2023-06-26T08:21:41;9.53;;;7.77;;
11854;SDS011;5987;53.140;8.904;2023-06-26T08:24:47;10.23;;;8.33;;
11854;SDS011;5987;53.140;8.904;2023-06-26T08:27:51;11.33;;;8.17;;
11854;SDS011;5987;53.140;8.904;2023-06-26T08:30:55;11.87;;;6.57;;
11854;SDS011;5987;53.140;8.904;2023-06-26T08:33:59;7.80;;;6.30;;
11854;SDS011;5987;53.140;8.904;2023-06-26T08:37:03;9.63;;;6.63;;
11854;SDS011;5987;53.140;8.904;2023-06-26T08:40:12;15.07;;;6.80;;
11854;SDS011;5987;53.140;8.904;2023-06-26T08:43:19;7.17;;;5.80;;
11854;SDS011;5987;53.140;8.904;2023-06-26T08:46:24;9.60;;;6.47;;
11854;SDS011;5987;53.140;8.904;2023-06-26T08:49:29;11.27;;;6.00;;
11854;SDS011;5987;53.140;8.904;2023-06-26T08:52:46;11.47;;;5.67;;
11854;SDS011;5987;53.140;8.904;2023-06-26T08:55:58;16.10;;;6.07;;
11854;SDS011;5987;53.140;8.904;2023-06-26T08:59:06;12.23;;;5.50;;
11854;SDS011;5987;53.140;8.904;2023-06-26T09:02:12;10.67;;;6.30;;
11854;SDS011;5987;53.140;8.904;2023-06-26T09:05:16;10.23;;;5.97;;
11854;SDS011;5987;53.140;8.904;2023-06-26T09:08:20;14.80;;;7.63;;
11854;SDS011;5987;53.140;8.904;2023-06-26T09:11:26;14.00;;;8.23;;
11854;SDS011;5987;53.140;8.904;2023-06-26T09:14:30;15.27;;;9.87;;
11854;SDS011;5987;53.140;8.904;2023-06-26T09:17:38;11.37;;;8.33;;
11854;SDS011;5987;53.140;8.904;2023-06-26T09:20:43;16.90;;;10.20;;
11854;SDS011;5987;53.140;8.904;2023-06-26T09:23:47;13.93;;;9.30;;
11854;SDS011;5987;53.140;8.904;2023-06-26T09:26:53;14.23;;;10.87;;
11854;SDS011;5987;53.140;8.904;2023-06-26T09:29:57;13.17;;;9.10;;
11854;SDS011;5987;53.140;8.904;2023-06-26T09:33:12;16.03;;;8.23;;
11854;SDS011;5987;53.140;8.904;2023-06-26T09:36:18;12.00;;;7.90;;
11854;SDS011;5987;53.140;8.904;2023-06-26T09:39:23;16.17;;;8.63;;
11854;SDS011;5987;53.140;8.904;2023-06-26T09:42:29;9.77;;;6.50;;
11854;SDS011;5987;53.140;8.904;2023-06-26T09:45:33;9.27;;;6.33;;
11854;SDS011;5987;53.140;8.904;2023-06-26T09:48:39;8.73;;;4.83;;
11854;SDS011;5987;53.140;8.904;2023-06-26T09:51:42;6.97;;;5.10;;
11854;SDS011;5987;53.140;8.904;2023-06-26T09:54:46;7.73;;;4.87;;
11854;SDS011;5987;53.140;8.904;2023-06-26T09:57:52;6.97;;;3.73;;
11854;SDS011;5987;53.140;8.904;2023-06-26T10:01:05;7.83;;;3.67;;
11854;SDS011;5987;53.140;8.904;2023-06-26T10:04:11;6.03;;;3.07;;
11854;SDS011;5987;53.140;8.904;2023-06-26T10:07:16;4.27;;;2.67;;
11854;SDS011;5987;53.140;8.904;2023-06-26T10:10:22;4.60;;;3.00;;
11854;SDS011;5987;53.140;8.904;2023-06-26T10:13:29;3.17;;;2.60;;
11854;SDS011;5987;53.140;8.904;2023-06-26T10:16:41;7.70;;;2.30;;
11854;SDS011;5987;53.140;8.904;2023-06-26T10:19:47;4.03;;;1.53;;
11854;SDS011;5987;53.140;8.904;2023-06-26T10:22:53;3.60;;;2.00;;
11854;SDS011;5987;53.140;8.904;2023-06-26T10:26:02;5.27;;;2.20;;
11854;SDS011;5987;53.140;8.904;2023-06-26T10:29:11;4.50;;;1.83;;
11854;SDS011;5987;53.140;8.904;2023-06-26T10:32:20;4.40;;;1.80;;
11854;SDS011;5987;53.140;8.904;2023-06-26T10:35:28;5.20;;;1.53;;
11854;SDS011;5987;53.140;8.904;2023-06-26T10:38:47;4.90;;;1.30;;
11854;SDS011;5987;53.140;8.904;2023-06-26T10:41:54;4.73;;;1.63;;
11854;SDS011;5987;53.140;8.904;2023-06-26T10:45:15;2.60;;;1.43;;
11854;SDS011;5987;53.140;8.904;2023-06-26T10:48:22;4.80;;;1.40;;
11854;SDS011;5987;53.140;8.904;2023-06-26T10:51:32;6.47;;;1.20;;
11854;SDS011;5987;53.140;8.904;2023-06-26T10:54:37;4.43;;;1.40;;
11854;SDS011;5987;53.140;8.904;2023-06-26T10:57:44;2.27;;;1.33;;
11854;SDS011;5987;53.140;8.904;2023-06-26T11:00:52;1.83;;;1.07;;
11854;SDS011;5987;53.140;8.904;2023-06-26T11:04:37;3.93;;;1.27;;
11854;SDS011;5987;53.140;8.904;2023-06-26T11:07:57;4.03;;;1.03;;
11854;SDS011;5987;53.140;8.904;2023-06-26T11:11:07;6.27;;;1.37;;
11854;SDS011;5987;53.140;8.904;2023-06-26T11:14:10;2.60;;;1.07;;
11854;SDS011;5987;53.140;8.904;2023-06-26T11:17:16;5.83;;;1.20;;
11854;SDS011;5987;53.140;8.904;2023-06-26T11:20:22;3.50;;;0.77;;
11854;SDS011;5987;53.140;8.904;2023-06-26T11:23:26;2.73;;;1.03;;
11854;SDS011;5987;53.140;8.904;2023-06-26T11:26:30;2.13;;;0.83;;
11854;SDS011;5987;53.140;8.904;2023-06-26T11:29:46;1.60;;;0.80;;
11854;SDS011;5987;53.140;8.904;2023-06-26T11:32:52;2.50;;;0.83;;
11854;SDS011;5987;53.140;8.904;2023-06-26T11:36:08;3.57;;;1.07;;
11854;SDS011;5987;53.140;8.904;2023-06-26T11:39:12;4.77;;;1.20;;
11854;SDS011;5987;53.140;8.904;2023-06-26T11:42:16;3.20;;;0.97;;
11854;SDS011;5987;53.140;8.904;2023-06-26T11:45:31;2.60;;;1.00;;
11854;SDS011;5987;53.140;8.904;2023-06-26T11:48:37;4.00;;;1.30;;
11854;SDS011;5987;53.140;8.904;2023-06-26T11:51:42;3.67;;;1.60;;
11854;SDS011;5987;53.140;8.904;2023-06-26T11:54:49;1.93;;;1.13;;
11854;SDS011;5987;53.140;8.904;2023-06-26T11:57:54;4.03;;;1.13;;
11854;SDS011;5987;53.140;8.904;2023-06-26T12:01:00;1.60;;;0.97;;
11854;SDS011;5987;53.140;8.904;2023-06-26T12:04:08;1.27;;;0.80;;
11854;SDS011;5987;53.140;8.904;2023-06-26T12:07:18;4.27;;;1.20;;
11854;SDS011;5987;53.140;8.904;2023-06-26T12:10:26;4.37;;;1.40;;
11854;SDS011;5987;53.140;8.904;2023-06-26T12:13:31;4.20;;;1.20;;
11854;SDS011;5987;53.140;8.904;2023-06-26T12:16:37;4.63;;;1.73;;
11854;SDS011;5987;53.140;8.904;2023-06-26T12:19:44;4.50;;;1.43;;
11854;SDS011;5987;53.140;8.904;2023-06-26T12:22:51;2.83;;;1.10;;
11854;SDS011;5987;53.140;8.904;2023-06-26T12:25:55;5.13;;;1.17;;
11854;SDS011;5987;53.140;8.904;2023-06-26T12:29:01;2.27;;;1.17;;
11854;SDS011;5987;53.140;8.904;2023-06-26T12:32:08;3.27;;;1.13;;
11854;SDS011;5987;53.140;8.904;2023-06-26T12:35:14;5.13;;;1.90;;
11854;SDS011;5987;53.140;8.904;2023-06-26T12:38:18;1.30;;;1.20;;
11854;SDS011;5987;53.140;8.904;2023-06-26T12:41:24;3.17;;;1.10;;
11854;SDS011;5987;53.140;8.904;2023-06-26T12:44:28;1.23;;;1.07;;
11854;SDS011;5987;53.140;8.904;2023-06-26T12:47:34;1.87;;;1.10;;
11854;SDS011;5987;53.140;8.904;2023-06-26T12:50:44;6.10;;;1.73;;
11854;SDS011;5987;53.140;8.904;2023-06-26T12:53:49;1.83;;;1.10;;
11854;SDS011;5987;53.140;8.904;2023-06-26T12:56:53;2.83;;;1.30;;
11854;SDS011;5987;53.140;8.904;2023-06-26T12:59:57;2.47;;;1.37;;
11854;SDS011;5987;53.140;8.904;2023-06-26T13:03:03;4.10;;;1.27;;
11854;SDS011;5987;53.140;8.904;2023-06-26T13:06:12;3.37;;;1.60;;
11854;SDS011;5987;53.140;8.904;2023-06-26T13:09:16;1.13;;;0.93;;
11854;SDS011;5987;53.140;8.904;2023-06-26T13:12:20;1.57;;;1.30;;
11854;SDS011;5987;53.140;8.904;2023-06-26T13:15:24;4.87;;;1.50;;
11854;SDS011;5987;53.140;8.904;2023-06-26T13:18:28;1.40;;;0.97;;
11854;SDS011;5987;53.140;8.904;2023-06-26T13:21:34;1.30;;;1.17;;
11854;SDS011;5987;53.140;8.904;2023-06-26T13:24:38;1.87;;;1.13;;
11854;SDS011;5987;53.140;8.904;2023-06-26T13:27:42;2.20;;;1.30;;
11854;SDS011;5987;53.140;8.904;2023-06-26T13:30:46;2.70;;;1.37;;
11854;SDS011;5987;53.140;8.904;2023-06-26T13:33:51;3.50;;;1.60;;
11854;SDS011;5987;53.140;8.904;2023-06-26T13:36:56;1.63;;;1.13;;
11854;SDS011;5987;53.140;8.904;2023-06-26T13:40:02;3.77;;;1.17;;
11854;SDS011;5987;53.140;8.904;2023-06-26T13:43:11;1.30;;;1.07;;
11854;SDS011;5987;53.140;8.904;2023-06-26T13:46:17;3.63;;;1.43;;
11854;SDS011;5987;53.140;8.904;2023-06-26T13:49:22;1.57;;;1.40;;
11854;SDS011;5987;53.140;8.904;2023-06-26T13:52:27;2.30;;;1.10;;
11854;SDS011;5987;53.140;8.904;2023-06-26T13:55:31;2.40;;;1.40;;
11854;SDS011;5987;53.140;8.904;2023-06-26T13:58:36;3.40;;;1.20;;
11854;SDS011;5987;53.140;8.904;2023-06-26T14:01:40;5.67;;;1.47;;
11854;SDS011;5987;53.140;8.904;2023-06-26T14:04:45;4.17;;;1.30;;
11854;SDS011;5987;53.140;8.904;2023-06-26T14:07:51;2.07;;;1.20;;
11854;SDS011;5987;53.140;8.904;2023-06-26T14:10:57;3.30;;;1.30;;
11854;SDS011;5987;53.140;8.904;2023-06-26T14:14:02;2.73;;;1.33;;
11854;SDS011;5987;53.140;8.904;2023-06-26T14:17:06;2.70;;;1.43;;
11854;SDS011;5987;53.140;8.904;2023-06-26T14:20:12;1.10;;;1.00;;
11854;SDS011;5987;53.140;8.904;2023-06-26T14:23:17;2.73;;;1.40;;
11854;SDS011;5987;53.140;8.904;2023-06-26T14:26:21;6.13;;;3.17;;
11854;SDS011;5987;53.140;8.904;2023-06-26T14:29:25;2.67;;;1.37;;
11854;SDS011;5987;53.140;8.904;2023-06-26T14:32:28;2.87;;;1.50;;
11854;SDS011;5987;53.140;8.904;2023-06-26T14:35:32;2.10;;;0.80;;
11854;SDS011;5987;53.140;8.904;2023-06-26T14:38:38;2.37;;;0.97;;
11854;SDS011;5987;53.140;8.904;2023-06-26T14:41:43;2.50;;;1.13;;
11854;SDS011;5987;53.140;8.904;2023-06-26T14:44:48;1.27;;;0.97;;
11854;SDS011;5987;53.140;8.904;2023-06-26T14:47:53;6.30;;;1.40;;
11854;SDS011;5987;53.140;8.904;2023-06-26T14:50:57;2.40;;;1.27;;
11854;SDS011;5987;53.140;8.904;2023-06-26T14:54:04;2.30;;;1.10;;
11854;SDS011;5987;53.140;8.904;2023-06-26T14:57:07;1.67;;;1.20;;
11854;SDS011;5987;53.140;8.904;2023-06-26T15:00:13;3.00;;;1.30;;
11854;SDS011;5987;53.140;8.904;2023-06-26T15:03:18;1.37;;;1.27;;
11854;SDS011;5987;53.140;8.904;2023-06-26T15:06:22;3.50;;;1.10;;
11854;SDS011;5987;53.140;8.904;2023-06-26T15:09:28;3.33;;;1.23;;
11854;SDS011;5987;53.140;8.904;2023-06-26T15:12:33;2.20;;;1.00;;
11854;SDS011;5987;53.140;8.904;2023-06-26T15:15:49;4.63;;;1.50;;
11854;SDS011;5987;53.140;8.904;2023-06-26T15:18:53;3.13;;;0.93;;
11854;SDS011;5987;53.140;8.904;2023-06-26T15:21:56;1.57;;;1.00;;
11854;SDS011;5987;53.140;8.904;2023-06-26T15:25:02;2.87;;;1.10;;
11854;SDS011;5987;53.140;8.904;2023-06-26T15:28:07;2.73;;;1.23;;
11854;SDS011;5987;53.140;8.904;2023-06-26T15:31:12;3.07;;;1.50;;
11854;SDS011;5987;53.140;8.904;2023-06-26T15:34:16;1.97;;;0.70;;
11854;SDS011;5987;53.140;8.904;2023-06-26T15:37:20;3.67;;;1.43;;
11854;SDS011;5987;53.140;8.904;2023-06-26T15:40:25;3.43;;;1.10;;
11854;SDS011;5987;53.140;8.904;2023-06-26T15:43:29;3.17;;;1.23;;
11854;SDS011;5987;53.140;8.904;2023-06-26T15:46:34;4.33;;;1.20;;
11854;SDS011;5987;53.140;8.904;2023-06-26T15:49:38;1.20;;;0.83;;
11854;SDS011;5987;53.140;8.904;2023-06-26T15:52:41;3.03;;;0.90;;
11854;SDS011;5987;53.140;8.904;2023-06-26T15:55:47;2.17;;;0.73;;
11854;SDS011;5987;53.140;8.904;2023-06-26T15:58:50;2.60;;;1.23;;
11854;SDS011;5987;53.140;8.904;2023-06-26T16:01:54;1.00;;;0.80;;
11854;SDS011;5987;53.140;8.904;2023-06-26T16:04:59;5.17;;;0.70;;
11854;SDS011;5987;53.140;8.904;2023-06-26T16:08:03;1.40;;;0.60;;
11854;SDS011;5987;53.140;8.904;2023-06-26T16:11:09;4.40;;;1.10;;
11854;SDS011;5987;53.140;8.904;2023-06-26T16:14:13;2.70;;;0.90;;
11854;SDS011;5987;53.140;8.904;2023-06-26T16:17:17;2.67;;;1.03;;
11854;SDS011;5987;53.140;8.904;2023-06-26T16:20:21;1.90;;;0.57;;
11854;SDS011;5987;53.140;8.904;2023-06-26T16:23:25;1.50;;;0.90;;
11854;SDS011;5987;53.140;8.904;2023-06-26T16:26:30;2.33;;;0.73;;
11854;SDS011;5987;53.140;8.904;2023-06-26T16:29:34;0.97;;;0.63;;
11854;SDS011;5987;53.140;8.904;2023-06-26T16:32:38;0.70;;;0.70;;
11854;SDS011;5987;53.140;8.904;2023-06-26T16:35:42;1.27;;;0.70;;
11854;SDS011;5987;53.140;8.904;2023-06-26T16:38:46;1.10;;;0.60;;
11854;SDS011;5987;53.140;8.904;2023-06-26T16:41:51;1.50;;;0.60;;
11854;SDS011;5987;53.140;8.904;2023-06-26T16:44:56;1.80;;;0.70;;
11854;SDS011;5987;53.140;8.904;2023-06-26T16:48:00;2.50;;;0.90;;
11854;SDS011;5987;53.140;8.904;2023-06-26T16:51:05;1.27;;;0.70;;
11854;SDS011;5987;53.140;8.904;2023-06-26T16:54:09;3.47;;;0.87;;
11854;SDS011;5987;53.140;8.904;2023-06-26T16:57:14;0.60;;;0.60;;
11854;SDS011;5987;53.140;8.904;2023-06-26T17:00:18;2.77;;;1.00;;
11854;SDS011;5987;53.140;8.904;2023-06-26T17:03:22;2.13;;;1.20;;
11854;SDS011;5987;53.140;8.904;2023-06-26T17:06:26;1.87;;;1.20;;
11854;SDS011;5987;53.140;8.904;2023-06-26T17:09:30;2.23;;;0.83;;
11854;SDS011;5987;53.140;8.904;2023-06-26T17:12:36;2.10;;;0.70;;
11854;SDS011;5987;53.140;8.904;2023-06-26T17:15:48;3.33;;;1.13;;
11854;SDS011;5987;53.140;8.904;2023-06-26T17:18:51;2.53;;;0.83;;
11854;SDS011;5987;53.140;8.904;2023-06-26T17:21:56;2.83;;;1.03;;
11854;SDS011;5987;53.140;8.904;2023-06-26T17:25:00;3.67;;;1.10;;
11854;SDS011;5987;53.140;8.904;2023-06-26T17:28:07;2.37;;;1.17;;
11854;SDS011;5987;53.140;8.904;2023-06-26T17:31:11;3.10;;;1.20;;
11854;SDS011;5987;53.140;8.904;2023-06-26T17:34:15;2.37;;;1.07;;
11854;SDS011;5987;53.140;8.904;2023-06-26T17:37:19;2.60;;;1.00;;
11854;SDS011;5987;53.140;8.904;2023-06-26T17:40:24;3.13;;;1.47;;
11854;SDS011;5987;53.140;8.904;2023-06-26T17:43:30;5.80;;;1.43;;
11854;SDS011;5987;53.140;8.904;2023-06-26T17:46:34;2.87;;;1.07;;
11854;SDS011;5987;53.140;8.904;2023-06-26T17:49:37;5.97;;;1.50;;
11854;SDS011;5987;53.140;8.904;2023-06-26T17:52:42;4.13;;;1.37;;
11854;SDS011;5987;53.140;8.904;2023-06-26T17:55:45;3.27;;;1.47;;
11854;SDS011;5987;53.140;8.904;2023-06-26T17:58:50;3.00;;;1.23;;
11854;SDS011;5987;53.140;8.904;2023-06-26T18:01:54;3.37;;;1.17;;
11854;SDS011;5987;53.140;8.904;2023-06-26T18:05:00;2.83;;;1.20;;
11854;SDS011;5987;53.140;8.904;2023-06-26T18:08:04;5.73;;;1.50;;
11854;SDS011;5987;53.140;8.904;2023-06-26T18:11:08;1.10;;;1.00;;
11854;SDS011;5987;53.140;8.904;2023-06-26T18:14:13;2.60;;;1.17;;
11854;SDS011;5987;53.140;8.904;2023-06-26T18:17:17;2.73;;;1.63;;
11854;SDS011;5987;53.140;8.904;2023-06-26T18:20:21;2.67;;;1.50;;
11854;SDS011;5987;53.140;8.904;2023-06-26T18:23:25;3.33;;;1.47;;
11854;SDS011;5987;53.140;8.904;2023-06-26T18:26:28;7.93;;;1.57;;
11854;SDS011;5987;53.140;8.904;2023-06-26T18:29:35;7.10;;;1.57;;
11854;SDS011;5987;53.140;8.904;2023-06-26T18:32:41;6.57;;;1.40;;
11854;SDS011;5987;53.140;8.904;2023-06-26T18:35:45;12.00;;;2.13;;
11854;SDS011;5987;53.140;8.904;2023-06-26T18:38:49;2.97;;;1.40;;
11854;SDS011;5987;53.140;8.904;2023-06-26T18:41:53;5.83;;;1.70;;
11854;SDS011;5987;53.140;8.904;2023-06-26T18:44:58;2.60;;;1.33;;
11854;SDS011;5987;53.140;8.904;2023-06-26T18:48:02;7.07;;;2.13;;
11854;SDS011;5987;53.140;8.904;2023-06-26T18:51:07;9.23;;;1.73;;
11854;SDS011;5987;53.140;8.904;2023-06-26T18:54:13;5.67;;;1.77;;